Latest Weather Observations for Albury

IDV60801

Issued at 8:03 am EST Friday 21 September 2018 (issued every 10 minutes, with the page automatically refreshed every 10 minutes)

About weather observations | Map of weather stations | Latest weather observations for VIC | Other Formats
Station Details ID: 072160 Name: ALBURY AIRPORT AWS Lat: -36.07 Lon: 146.95 Height: 163.5 m
Data from the previous 72 hours. | See also: Recent months at Albury
Date/Time
EST
Temp
°C
App
Temp
°C
Dew
Point
°C
Rel
Hum
%
Delta-T
°C
Wind Press
QNH
hPa
Press
MSL
hPa
Rain since
9am
mm
Dir  Spd
km/h
Gust
km/h
Spd
kts
Gust
kts
21/08:00am 7.9 5.4 3.9 76 1.7 SE 6 9 3 5 1028.0 1028.1 0.0
21/07:30am 5.5 4.1 3.5 87 0.8 CALM 0 0 0 0 1027.8 1027.9 0.0
21/07:00am 3.5 1.9 2.5 93 0.4 CALM 0 0 0 0 1027.7 1027.8 0.0
21/06:30am 2.4 0.7 1.7 95 0.3 CALM 0 0 0 0 1027.4 1027.5 0.0
21/06:00am 1.6 -0.3 0.3 91 0.5 CALM 0 0 0 0 1026.9 1027.0 0.0
21/05:30am 2.4 0.6 1.1 91 0.5 CALM 0 0 0 0 1026.6 1026.7 0.0
21/05:00am 2.5 0.7 1.2 91 0.5 CALM 0 0 0 0 1026.2 1026.3 0.0
21/04:30am 2.8 1.1 1.6 92 0.5 CALM 0 0 0 0 1025.9 1026.0 0.0
21/04:00am 2.9 1.1 1.3 89 0.6 CALM 0 0 0 0 1025.7 1025.8 0.0
21/03:30am 3.1 1.4 1.8 91 0.5 CALM 0 0 0 0 1025.6 1025.7 0.0
21/03:00am 2.4 0.6 0.9 90 0.6 CALM 0 0 0 0 1025.5 1025.6 0.0
21/02:30am 3.0 0.1 1.4 89 0.6 NNE 6 7 3 4 1025.6 1025.7 0.0
21/02:00am 3.0 1.1 0.7 85 0.9 CALM 0 0 0 0 1025.7 1025.8 0.0
21/01:30am 3.6 1.9 1.6 87 0.8 CALM 0 0 0 0 1025.7 1025.8 0.0
21/01:00am 4.2 2.5 1.6 83 1.0 CALM 0 4 0 2 1025.7 1025.8 0.0
21/12:30am 4.9 2.9 2.1 82 1.1 SSE 2 6 1 3 1025.7 1025.8 0.0
21/12:00am 4.5 2.7 1.5 81 1.2 CALM 0 0 0 0 1025.6 1025.7 0.0
 
Date/Time
EST
Temp
°C
App
Temp
°C
Dew
Point
°C
Rel
Hum
%
Delta-T
°C
Wind Press
QNH
hPa
Press
MSL
hPa
Rain since
9am
mm
Dir  Spd
km/h
Gust
km/h
Spd
kts
Gust
kts
20/11:30pm 5.4 3.7 1.9 78 1.4 CALM 0 0 0 0 1025.4 1025.5 0.0
20/11:00pm 5.5 3.8 1.6 76 1.6 CALM 0 0 0 0 1025.2 1025.3 0.0
20/10:30pm 6.1 4.4 2.0 75 1.7 CALM 0 0 0 0 1025.2 1025.3 0.0
20/10:00pm 6.4 4.9 3.0 79 1.4 CALM 0 0 0 0 1025.2 1025.3 0.0
20/09:30pm 7.6 4.9 2.7 71 2.1 E 6 7 3 4 1024.9 1025.0 0.0
20/09:00pm 8.4 6.7 2.0 64 2.7 CALM 0 0 0 0 1024.3 1024.4 0.0
20/08:30pm 9.0 6.0 1.9 61 3.0 WNW 7 9 4 5 1024.0 1024.1 0.0
20/08:00pm 10.3 7.3 1.9 56 3.6 N 7 7 4 4 1023.7 1023.8 0.0
20/07:30pm 10.6 7.6 1.9 55 3.7 WSW 7 9 4 5 1023.5 1023.6 0.0
20/07:00pm 10.6 6.4 1.9 55 3.7 WSW 13 15 7 8 1023.1 1023.2 0.0
20/06:30pm 11.6 7.7 1.3 49 4.4 WSW 11 13 6 7 1022.5 1022.5 0.0
20/06:00pm 13.2 8.6 1.5 45 5.0 WSW 15 20 8 11 1022.3 1022.3 0.0
20/05:30pm 14.5 9.1 1.1 40 5.8 W 19 24 10 13 1021.7 1021.8 0.0
20/05:00pm 15.3 9.9 1.1 38 6.2 W 19 24 10 13 1021.4 1021.5 0.0
20/04:30pm 15.8 10.3 0.4 35 6.7 WSW 19 28 10 15 1021.0 1021.1 0.0
20/04:00pm 16.1 11.4 1.0 36 6.6 SW 15 20 8 11 1020.9 1021.0 0.0
20/03:30pm 16.2 10.2 1.1 36 6.7 W 22 32 12 17 1020.8 1020.9 0.0
20/03:05pm 16.3 11.0 1.6 37 6.6 SW 19 28 10 15 1020.9 1021.0 0.0
20/03:00pm 16.2 10.3 1.9 38 6.4 SW 22 32 12 17 1021.0 1021.1 0.0
20/02:38pm 16.5 11.0 1.8 37 6.6 W 20 33 11 18 1021.0 1021.1 0.0
20/02:30pm 16.1 10.2 1.4 37 6.5 WSW 22 30 12 16 1021.0 1021.1 0.0
20/02:00pm 16.2 9.7 2.6 40 6.2 WSW 26 33 14 18 1021.0 1021.1 0.0
20/01:30pm 16.0 10.2 2.1 39 6.2 WSW 22 32 12 17 1021.1 1021.2 0.0
20/01:00pm 16.4 11.0 2.4 39 6.3 WSW 20 30 11 16 1020.9 1021.0 0.0
20/12:30pm 15.2 9.8 1.0 38 6.2 WSW 19 28 10 15 1021.0 1021.1 0.0
20/12:00pm 15.3 10.0 2.1 41 5.9 WSW 19 30 10 16 1021.0 1021.1 0.0
20/11:30am 14.7 9.7 3.5 47 5.1 W 19 28 10 15 1021.1 1021.2 0.0
20/11:00am 13.8 8.9 2.1 45 5.1 W 17 24 9 13 1021.3 1021.4 0.0
20/10:30am 14.0 10.8 3.2 48 4.9 W 9 19 5 10 1021.4 1021.5 0.0
20/10:00am 12.3 9.7 3.3 54 4.0 E 6 7 3 4 1021.6 1021.7 0.0
20/09:30am 10.7 8.1 4.2 64 2.9 ENE 7 9 4 5 1021.6 1021.7 0.0
20/09:00am 9.4 6.7 2.7 63 2.9 ESE 6 9 3 5 1021.5 1021.6 0.0
20/08:30am 8.7 7.1 2.5 65 2.6 CALM 0 0 0 0 1021.2 1021.3 0.0
20/08:00am 7.0 4.7 2.5 73 1.9 ESE 4 6 2 3 1020.8 1020.9 0.0
20/07:30am 4.8 1.8 2.3 84 1.0 SSE 7 9 4 5 1020.5 1020.6 0.0
20/07:00am 2.5 0.7 0.9 89 0.6 CALM 0 0 0 0 1020.1 1020.2 0.0
20/06:30am 1.4 -0.6 0.2 92 0.4 CALM 0 0 0 0 1019.6 1019.7 0.0
20/06:00am 1.5 -0.5 0.0 90 0.6 CALM 0 2 0 1 1019.2 1019.3 0.0
20/05:30am 2.1 -0.5 0.8 91 0.5 N 4 7 2 4 1018.9 1019.0 0.0
20/05:00am 2.0 -1.1 0.4 89 0.6 N 6 6 3 3 1018.4 1018.5 0.0
20/04:30am 2.2 0.3 0.6 89 0.6 CALM 0 0 0 0 1018.3 1018.4 0.0
20/04:00am 2.2 0.3 0.6 89 0.6 CALM 0 0 0 0 1018.1 1018.2 0.0
20/03:30am 2.2 -0.1 0.4 88 0.7 NE 2 7 1 4 1017.8 1017.8 0.0
20/03:00am 2.7 0.8 0.8 87 0.7 CALM 0 0 0 0 1017.7 1017.7 0.0
20/02:30am 3.0 1.2 1.2 88 0.7 CALM 0 0 0 0 1017.8 1017.8 0.0
20/02:00am 2.6 0.7 0.3 85 0.9 CALM 0 0 0 0 1017.9 1018.0 0.0
20/01:30am 3.4 1.6 1.1 85 0.9 CALM 0 0 0 0 1018.0 1018.1 0.0
20/01:00am 3.4 1.6 1.0 84 0.9 CALM 0 0 0 0 1018.1 1018.2 0.0
20/12:30am 3.5 1.6 0.6 81 1.1 CALM 0 6 0 3 1018.0 1018.1 0.0
20/12:00am 4.4 1.5 1.6 82 1.1 ENE 6 7 3 4 1017.9 1018.0 0.0
 
Date/Time
EST
Temp
°C
App
Temp
°C
Dew
Point
°C
Rel
Hum
%
Delta-T
°C
Wind Press
QNH
hPa
Press
MSL
hPa
Rain since
9am
mm
Dir  Spd
km/h
Gust
km/h
Spd
kts
Gust
kts
19/11:30pm 5.2 3.5 1.9 79 1.3 CALM 0 0 0 0 1017.7 1017.7 0.0
19/11:00pm 5.7 4.0 2.0 77 1.5 CALM 0 0 0 0 1017.7 1017.7 0.0
19/10:30pm 6.0 3.5 1.3 72 1.9 ESE 4 9 2 5 1017.6 1017.6 0.0
19/10:00pm 7.4 5.7 1.7 67 2.3 CALM 0 6 0 3 1017.3 1017.3 0.0
19/09:30pm 7.3 4.2 1.6 67 2.3 NW 7 9 4 5 1017.2 1017.2 0.0
19/09:00pm 7.5 4.5 2.0 68 2.3 NNW 7 9 4 5 1017.1 1017.1 0.0
19/08:30pm 8.4 5.9 1.6 62 2.8 NNW 4 7 2 4 1016.8 1016.8 0.0
19/08:00pm 8.9 6.7 1.3 59 3.1 NNW 2 6 1 3 1016.4 1016.4 0.0
19/07:30pm 10.0 7.0 0.9 53 3.8 NW 6 7 3 4 1016.1 1016.1 0.0
19/07:00pm 10.5 7.3 0.8 51 4.0 W 7 9 4 5 1015.8 1015.8 0.0
19/06:30pm 11.1 7.1 0.2 47 4.5 WSW 11 13 6 7 1015.3 1015.4 0.0
19/06:00pm 12.4 7.2 0.2 43 5.1 WSW 17 24 9 13 1015.1 1015.2 0.0
19/05:30pm 13.4 8.2 0.1 40 5.6 WSW 17 22 9 12 1014.7 1014.8 0.0
19/05:00pm 13.8 8.0 -0.3 38 5.9 W 20 26 11 14 1014.2 1014.3 0.0
19/04:30pm 14.4 8.2 -0.5 36 6.2 WSW 22 33 12 18 1014.0 1014.1 0.0
19/04:00pm 14.9 8.3 -0.4 35 6.5 WSW 24 32 13 17 1013.8 1013.9 0.0
19/03:30pm 15.0 8.4 -0.3 35 6.5 WSW 24 35 13 19 1013.8 1013.9 0.0
19/03:00pm 15.8 10.4 2.2 40 6.1 WSW 20 32 11 17 1013.8 1013.9 0.0
19/02:30pm 15.2 8.6 2.1 41 5.8 W 26 33 14 18 1013.7 1013.8 0.0
19/02:00pm 14.8 8.5 1.7 41 5.8 W 24 33 13 18 1013.6 1013.7 0.0
19/01:30pm 14.9 9.1 2.4 43 5.6 WNW 22 37 12 20 1013.6 1013.7 0.0
19/01:00pm 14.5 9.1 2.7 45 5.3 WNW 20 35 11 19 1013.6 1013.7 0.0
19/12:30pm 13.7 8.6 2.9 48 4.8 W 19 32 10 17 1013.7 1013.8 0.0
19/12:00pm 13.9 7.9 3.1 48 4.9 W 24 37 13 20 1013.8 1013.9 0.0
19/11:30am 14.0 8.0 3.5 49 4.8 WNW 24 33 13 18 1013.8 1013.9 0.0
19/11:00am 13.8 8.8 4.7 54 4.2 W 20 33 11 18 1013.9 1014.0 0.0
19/10:30am 13.2 8.4 4.6 56 4.0 W 19 30 10 16 1013.8 1013.9 0.0
19/10:00am 11.3 6.1 3.3 58 3.5 W 20 28 11 15 1013.7 1013.8 0.0
19/09:30am 12.1 7.1 4.8 61 3.4 W 20 28 11 15 1013.5 1013.6 0.0
19/09:29am 11.9 7.0 4.9 62 3.2 WNW 20 30 11 16 1013.5 1013.6 0.0
19/09:00am 11.6 7.1 6.1 69 2.6 WNW 19 24 10 13 1013.4 1013.5 0.0
19/08:55am 11.1 6.5 5.6 69 2.6 W 19 24 10 13 1013.4 1013.5 0.0
19/08:30am 10.9 6.3 6.3 73 2.2 W 20 30 11 16 1013.3 1013.4 0.0
19/08:00am 10.0 5.2 5.4 73 2.1 W 20 32 11 17 1013.1 1013.2 0.0
19/07:30am 9.6 4.7 5.2 74 2.0 W 20 30 11 16 1012.7 1012.8 0.0
19/07:00am 9.1 3.8 4.9 75 1.9 W 22 30 12 16 1012.5 1012.5 0.0
19/06:30am 9.1 4.9 5.5 78 1.6 W 17 28 9 15 1012.0 1012.0 0.0
19/06:00am 9.5 4.4 5.9 78 1.7 W 22 32 12 17 1011.7 1011.7 0.0
19/05:30am 10.0 4.6 6.3 78 1.7 W 24 35 13 19 1011.3 1011.3 0.0
19/05:00am 10.3 5.9 6.6 78 1.8 W 19 28 10 15 1011.0 1011.0 0.0
19/04:30am 10.6 7.3 6.6 76 1.9 WNW 13 20 7 11 1010.5 1010.5 0.0
19/04:00am 10.6 8.4 6.0 73 2.2 W 7 15 4 8 1010.2 1010.2 0.0
19/03:30am 11.4 6.7 6.1 70 2.5 WNW 20 26 11 14 1010.3 1010.3 0.0
19/03:00am 11.8 8.4 5.9 67 2.8 WNW 13 20 7 11 1009.8 1009.8 0.0
19/02:30am 12.2 8.8 5.8 65 3.0 NW 13 19 7 10 1010.0 1010.0 0.0
19/02:00am 12.0 9.4 5.9 66 2.9 ENE 9 11 5 6 1009.4 1009.4 0.0
19/01:30am 13.0 10.2 5.2 59 3.7 SW 9 13 5 7 1010.2 1010.2 0.0
19/01:00am 13.2 10.1 5.4 59 3.7 WSW 11 15 6 8 1010.7 1010.7 0.0
19/12:30am 14.2 9.9 5.3 55 4.2 SW 17 26 9 14 1010.6 1010.6 0.0
19/12:00am 15.1 9.0 5.0 51 4.8 WSW 26 41 14 22 1010.8 1010.8 0.0
 
Date/Time
EST
Temp
°C
App
Temp
°C
Dew
Point
°C
Rel
Hum
%
Delta-T
°C
Wind Press
QNH
hPa
Press
MSL
hPa
Rain since
9am
mm
Dir  Spd
km/h
Gust
km/h
Spd
kts
Gust
kts
18/11:30pm 16.0 10.6 1.3 37 6.5 WNW 19 26 10 14 1011.6 1011.6 0.0
18/11:00pm 16.6 12.2 -2.5 27 7.8 WNW 11 24 6 13 1010.9 1010.9 0.0
18/10:30pm 17.6 12.7 -3.2 24 8.5 WNW 13 20 7 11 1010.5 1010.5 0.0
18/10:00pm 19.3 13.0 -4.2 20 9.6 WNW 20 28 11 15 1010.5 1010.5 0.0
18/09:30pm 19.7 11.0 -3.2 21 9.5 N 33 56 18 30 1010.8 1010.8 0.0
18/09:22pm 18.9 13.1 -1.5 25 8.7 N 19 56 10 30 1010.8 1010.8 0.0
18/09:00pm 14.6 12.5 1.5 41 5.8 ENE 2 9 1 5 1010.4 1010.4 0.0
18/08:30pm 14.1 12.5 2.7 46 5.1 CALM 0 0 0 0 1010.8 1010.8 0.0
18/08:00pm 14.5 11.5 1.8 42 5.6 S 7 9 4 5 1011.0 1011.0 0.0
18/07:30pm 15.4 12.6 2.9 43 5.7 S 7 9 4 5 1010.8 1010.8 0.0
18/07:00pm 15.8 13.0 2.2 40 6.1 NNE 6 9 3 5 1010.8 1010.8 0.0
18/06:30pm 17.3 15.5 1.3 34 7.2 CALM 0 0 0 0 1010.9 1010.9 0.0
18/06:00pm 17.8 14.5 -0.9 28 8.0 NNE 6 7 3 4 1010.9 1010.9 0.0
18/05:30pm 18.7 15.8 1.7 32 7.8 NNE 6 7 3 4 1010.7 1010.7 0.0
18/05:00pm 19.6 16.2 -0.4 26 8.8 N 7 11 4 6 1011.0 1011.0 0.0
18/04:30pm 20.4 15.7 -2.0 22 9.6 NW 13 17 7 9 1011.3 1011.3 0.0
18/04:00pm 20.4 15.4 -1.4 23 9.5 NNW 15 20 8 11 1011.2 1011.2 0.0
18/03:30pm 20.7 14.5 -3.0 20 10.0 NW 20 30 11 16 1011.3 1011.3 0.0
18/03:00pm 21.2 15.5 -4.0 18 10.5 NNW 17 30 9 16 1011.6 1011.6 0.0
18/02:30pm 20.7 14.0 -4.4 18 10.3 NNW 22 32 12 17 1011.6 1011.6 0.0
18/02:00pm 21.3 15.3 -1.9 21 10.1 N 20 28 11 15 1012.1 1012.1 0.0
18/01:30pm 21.5 15.4 -2.4 20 10.3 NNW 20 35 11 19 1012.4 1012.4 0.0
18/01:00pm 20.5 13.6 -2.5 21 9.8 N 24 41 13 22 1013.3 1013.4 0.0
18/12:30pm 20.4 14.5 -2.6 21 9.8 NNW 19 28 10 15 1013.7 1013.8 0.0
18/12:00pm 19.5 14.7 0.0 27 8.6 NNW 15 28 8 15 1014.6 1014.7 0.0
18/11:30am 17.3 14.5 5.3 45 5.8 SE 9 17 5 9 1015.4 1015.5 0.0
18/11:00am 17.2 14.0 5.2 45 5.8 ESE 11 17 6 9 1015.9 1015.9 0.0
18/10:30am 15.1 12.1 6.1 55 4.4 SE 11 15 6 8 1016.5 1016.5 0.0
18/10:00am 14.2 11.7 5.0 54 4.3 ESE 7 11 4 6 1016.7 1016.7 0.0
18/09:30am 12.3 9.6 5.5 63 3.2 ESE 9 13 5 7 1017.1 1017.1 0.0
18/09:00am 10.0 7.6 5.2 72 2.2 SE 7 11 4 6 1017.2 1017.2 0.0
18/08:30am 9.4 7.0 5.4 76 1.8 ESE 7 11 4 6 1017.3 1017.3 0.0

Other Formats:

Comma delimited format used in spreadsheet applications
http://www.bom.gov.au/fwo/IDV60801/IDV60801.95896.axf

JavaScript Object Notation format (JSON) in row-major order
http://www.bom.gov.au/fwo/IDV60801/IDV60801.95896.json